^^
Saratoga-Weather Station Historical Data
Daily Summary for August 07, 2022 Units:  Metric    English   Both
Daily Weekly Monthly Yearly Custom
  High: Low: Average:
Temperature: 28.4 °C 14 °C 21.3 °C
Dew Point: 11 °C 7.2 °C 8.6 °C
Humidity: 65% 30% 46%
Wind Speed: 17.7km/h 0km/h 3.2km/h
Wind Gust: 17.7km/h - -
Wind- - SSW
Pressure: 1023.4 hPa 1018.0 hPa -
Precipitation: 0.0 mm    
Historical Graphs
 
 
Tabular Data for August 07, 2022
Time Temperature Dew Point Pressure Wind Wind Speed Wind Gust Humidity Rainfall Rate (Hourly) solar
00:02 17.6 °C 7.6 °C 1023.0 hPa WSW 1.4 km/h 4.8 km/h 52% 0.0 mm 0 W/m2
00:07 17.6 °C 7.6 °C 1023.4 hPa NW 4.7 km/h 14.5 km/h 52% 0.0 mm 0 W/m2
00:12 17.6 °C 7.9 °C 1023.4 hPa NNW 3.2 km/h 6.4 km/h 53% 0.0 mm 0 W/m2
00:17 17.4 °C 7.7 °C 1023.4 hPa West 4.7 km/h 9.7 km/h 53% 0.0 mm 0 W/m2
00:22 17.4 °C 7.7 °C 1023.4 hPa NW 1.4 km/h 6.4 km/h 53% 0.0 mm 0 W/m2
00:27 17.3 °C 7.6 °C 1023.4 hPa WSW 4.7 km/h 6.4 km/h 53% 0.0 mm 0 W/m2
00:32 17.3 °C 7.6 °C 1023.4 hPa WNW 1.4 km/h 6.4 km/h 53% 0.0 mm 0 W/m2
00:37 17.2 °C 7.5 °C 1023.0 hPa West 3.2 km/h 6.4 km/h 53% 0.0 mm 0 W/m2
00:42 17.2 °C 7.5 °C 1023.0 hPa WSW 3.2 km/h 6.4 km/h 53% 0.0 mm 0 W/m2
00:47 17.1 °C 7.4 °C 1023.0 hPa West 1.4 km/h 8 km/h 53% 0.0 mm 0 W/m2
00:53 17.1 °C 7.4 °C 1023.0 hPa West 4.7 km/h 9.7 km/h 53% 0.0 mm 0 W/m2
00:58 17.1 °C 7.7 °C 1023.0 hPa NNW 4.7 km/h 6.4 km/h 54% 0.0 mm 0 W/m2
01:03 17 °C 7.6 °C 1023.0 hPa Calm   3.2 km/h 54% 0.0 mm 0 W/m2
01:08 17 °C 7.6 °C 1023.0 hPa WNW 3.2 km/h 4.8 km/h 54% 0.0 mm 0 W/m2
01:13 16.9 °C 7.5 °C 1023.0 hPa West 3.2 km/h 6.4 km/h 54% 0.0 mm 0 W/m2
01:18 16.8 °C 7.4 °C 1023.0 hPa West 4.7 km/h 6.4 km/h 54% 0.0 mm 0 W/m2
01:23 16.8 °C 7.4 °C 1023.0 hPa West 4.7 km/h 4.8 km/h 54% 0.0 mm 0 W/m2
01:28 16.8 °C 7.4 °C 1023.0 hPa West 9.7 km/h 9.7 km/h 54% 0.0 mm 0 W/m2
01:33 16.8 °C 7.4 °C 1023.0 hPa WNW 4.7 km/h 6.4 km/h 54% 0.0 mm 0 W/m2
01:38 16.7 °C 7.3 °C 1023.0 hPa WSW 3.2 km/h 6.4 km/h 54% 0.0 mm 0 W/m2
01:43 16.7 °C 7.6 °C 1023.0 hPa Calm   3.2 km/h 55% 0.0 mm 0 W/m2
01:48 16.6 °C 7.5 °C 1023.0 hPa WNW 3.2 km/h 4.8 km/h 55% 0.0 mm 0 W/m2
01:53 16.6 °C 7.5 °C 1023.0 hPa West 3.2 km/h 6.4 km/h 55% 0.0 mm 0 W/m2
01:58 16.5 °C 7.4 °C 1022.7 hPa NW 1.4 km/h 6.4 km/h 55% 0.0 mm 0 W/m2
02:03 16.5 °C 7.4 °C 1022.7 hPa West 3.2 km/h 6.4 km/h 55% 0.0 mm 0 W/m2
02:08 16.5 °C 7.4 °C 1022.7 hPa WNW 4.7 km/h 8 km/h 55% 0.0 mm 0 W/m2
02:13 16.4 °C 7.3 °C 1022.7 hPa NW 4.7 km/h 9.7 km/h 55% 0.0 mm 0 W/m2
02:18 16.4 °C 7.3 °C 1022.7 hPa WNW 3.2 km/h 6.4 km/h 55% 0.0 mm 0 W/m2
02:23 16.3 °C 7.2 °C 1022.4 hPa WNW 3.2 km/h 6.4 km/h 55% 0.0 mm 0 W/m2
02:28 16.3 °C 7.2 °C 1022.4 hPa West 1.4 km/h 4.8 km/h 55% 0.0 mm 0 W/m2
02:33 16.3 °C 7.2 °C 1022.4 hPa West 1.4 km/h 4.8 km/h 55% 0.0 mm 0 W/m2
02:38 16.2 °C 7.4 °C 1022.4 hPa WNW 1.4 km/h 3.2 km/h 56% 0.0 mm 0 W/m2
02:43 16.2 °C 7.4 °C 1022.4 hPa Calm   4.8 km/h 56% 0.0 mm 0 W/m2
02:48 16.1 °C 7.3 °C 1022.4 hPa WNW 11.1 km/h 11.3 km/h 56% 0.0 mm 0 W/m2
02:53 16.1 °C 7.3 °C 1022.4 hPa West 1.4 km/h 4.8 km/h 56% 0.0 mm 0 W/m2
02:58 16.1 °C 7.3 °C 1022.4 hPa WNW 1.4 km/h 9.7 km/h 56% 0.0 mm 0 W/m2
03:03 16 °C 7.5 °C 1022.4 hPa WSW 3.2 km/h 3.2 km/h 57% 0.0 mm 0 W/m2
03:08 15.9 °C 7.4 °C 1022.4 hPa Calm   1.6 km/h 57% 0.0 mm 0 W/m2
03:13 15.8 °C 7.6 °C 1022.4 hPa South 1.4 km/h 3.2 km/h 58% 0.0 mm 0 W/m2
03:18 15.7 °C 7.5 °C 1022.4 hPa Calm   3.2 km/h 58% 0.0 mm 0 W/m2
03:23 15.5 °C 7.5 °C 1022.4 hPa South 1.4 km/h 3.2 km/h 59% 0.0 mm 0 W/m2
03:28 15.4 °C 7.4 °C 1022.0 hPa SSW 1.4 km/h 4.8 km/h 59% 0.0 mm 0 W/m2
03:33 15.3 °C 7.6 °C 1022.0 hPa Calm   1.6 km/h 60% 0.0 mm 0 W/m2
03:38 15.2 °C 7.2 °C 1022.0 hPa SW 1.4 km/h 3.2 km/h 59% 0.0 mm 0 W/m2
03:43 15.2 °C 7.5 °C 1022.0 hPa WSW 1.4 km/h 4.8 km/h 60% 0.0 mm 0 W/m2
03:48 15.2 °C 7.2 °C 1022.0 hPa WSW 3.2 km/h 4.8 km/h 59% 0.0 mm 0 W/m2
03:53 15.2 °C 7.5 °C 1022.0 hPa SW 3.2 km/h 3.2 km/h 60% 0.0 mm 0 W/m2
03:58 15.2 °C 7.5 °C 1022.0 hPa Calm   3.2 km/h 60% 0.0 mm 0 W/m2
04:03 15.1 °C 7.6 °C 1022.0 hPa WNW 1.4 km/h 3.2 km/h 61% 0.0 mm 0 W/m2
04:08 14.9 °C 7.4 °C 1022.0 hPa Calm   4.8 km/h 61% 0.0 mm 0 W/m2
04:13 14.8 °C 7.6 °C 1022.0 hPa SW 1.4 km/h 3.2 km/h 62% 0.0 mm 0 W/m2
04:18 14.7 °C 7.5 °C 1022.0 hPa Calm   4.8 km/h 62% 0.0 mm 0 W/m2
04:23 14.7 °C 7.3 °C 1022.0 hPa NW 4.7 km/h 4.8 km/h 61% 0.0 mm 0 W/m2
04:28 14.8 °C 7.6 °C 1022.0 hPa WNW 1.4 km/h 3.2 km/h 62% 0.0 mm 0 W/m2
04:33 14.8 °C 7.6 °C 1022.0 hPa NW 1.4 km/h 6.4 km/h 62% 0.0 mm 0 W/m2
04:38 14.7 °C 7.3 °C 1022.0 hPa Calm   3.2 km/h 61% 0.0 mm 0 W/m2
04:43 14.7 °C 7.3 °C 1022.0 hPa South 1.4 km/h 4.8 km/h 61% 0.0 mm 0 W/m2
04:48 14.8 °C 7.4 °C 1022.0 hPa WSW 1.4 km/h 4.8 km/h 61% 0.0 mm 0 W/m2
04:53 14.8 °C 7.4 °C 1021.7 hPa Calm   3.2 km/h 61% 0.0 mm 0 W/m2
04:58 14.8 °C 7.4 °C 1021.7 hPa Calm   4.8 km/h 61% 0.0 mm 0 W/m2
05:03 14.8 °C 7.4 °C 1021.7 hPa WSW 1.4 km/h 3.2 km/h 61% 0.0 mm 0 W/m2
05:08 14.8 °C 7.4 °C 1021.3 hPa West 3.2 km/h 9.7 km/h 61% 0.0 mm 0 W/m2
05:13 14.8 °C 7.4 °C 1021.3 hPa WNW 3.2 km/h 6.4 km/h 61% 0.0 mm 0 W/m2
05:18 14.9 °C 7.4 °C 1021.3 hPa West 1.4 km/h 6.4 km/h 61% 0.0 mm 0 W/m2
05:23 14.9 °C 7.4 °C 1021.7 hPa West 1.4 km/h 4.8 km/h 61% 0.0 mm 0 W/m2
05:28 14.8 °C 7.4 °C 1021.3 hPa WSW 4.7 km/h 6.4 km/h 61% 0.0 mm 0 W/m2
05:33 14.8 °C 7.4 °C 1021.3 hPa West 3.2 km/h 4.8 km/h 61% 0.0 mm 0 W/m2
05:38 14.7 °C 7.3 °C 1021.3 hPa West 3.2 km/h 6.4 km/h 61% 0.0 mm 0 W/m2
05:43 14.7 °C 7.3 °C 1021.3 hPa West 3.2 km/h 4.8 km/h 61% 0.0 mm 0 W/m2
05:48 14.6 °C 7.4 °C 1021.3 hPa WSW 3.2 km/h 6.4 km/h 62% 0.0 mm 0 W/m2
05:53 14.6 °C 7.4 °C 1021.3 hPa NNW 3.2 km/h 6.4 km/h 62% 0.0 mm 0 W/m2
05:58 14.6 °C 7.4 °C 1021.3 hPa Calm   1.6 km/h 62% 0.0 mm 0 W/m2
06:03 14.4 °C 7.4 °C 1021.3 hPa WNW 1.4 km/h 6.4 km/h 63% 0.0 mm 0 W/m2
06:08 14.3 °C 7.4 °C 1021.7 hPa NW 1.4 km/h 4.8 km/h 63% 0.0 mm 0 W/m2
06:13 14.2 °C 7.3 °C 1021.7 hPa ENE 1.4 km/h 3.2 km/h 63% 0.0 mm 0 W/m2
06:18 14.3 °C 7.4 °C 1021.7 hPa SW 1.4 km/h 1.6 km/h 63% 0.0 mm 5 W/m2
06:23 14.3 °C 7.4 °C 1021.7 hPa Calm   3.2 km/h 63% 0.0 mm 7 W/m2
06:28 14.2 °C 7.3 °C 1021.7 hPa Calm   3.2 km/h 63% 0.0 mm 7 W/m2
06:33 14.2 °C 7.5 °C 1021.7 hPa WSW 1.4 km/h 4.8 km/h 64% 0.0 mm 9 W/m2
06:38 14.1 °C 7.6 °C 1021.7 hPa WSW 1.4 km/h 3.2 km/h 65% 0.0 mm 12 W/m2
06:43 14 °C 7.5 °C 1021.7 hPa WSW 1.4 km/h 4.8 km/h 65% 0.0 mm 14 W/m2
06:48 14.1 °C 7.4 °C 1021.7 hPa West 4.7 km/h 4.8 km/h 64% 0.0 mm 14 W/m2
06:53 14.3 °C 7.4 °C 1021.7 hPa WNW 4.7 km/h 8 km/h 63% 0.0 mm 18 W/m2
06:58 14.4 °C 7.4 °C 1021.7 hPa WSW 1.4 km/h 4.8 km/h 63% 0.0 mm 18 W/m2
07:03 14.4 °C 7.2 °C 1021.7 hPa WSW 1.4 km/h 3.2 km/h 62% 0.0 mm 19 W/m2
07:08 14.5 °C 7.3 °C 1022.0 hPa WNW 3.2 km/h 6.4 km/h 62% 0.0 mm 21 W/m2
07:13 14.6 °C 7.4 °C 1022.0 hPa Calm   6.4 km/h 62% 0.0 mm 21 W/m2
07:18 14.6 °C 7.4 °C 1022.0 hPa NNW 1.4 km/h 3.2 km/h 62% 0.0 mm 23 W/m2
07:23 14.7 °C 7.5 °C 1022.0 hPa NW 1.4 km/h 3.2 km/h 62% 0.0 mm 25 W/m2
07:28 14.7 °C 7.5 °C 1022.0 hPa Calm   3.2 km/h 62% 0.0 mm 74 W/m2
07:33 14.8 °C 7.6 °C 1022.0 hPa NW 1.4 km/h 3.2 km/h 62% 0.0 mm 97 W/m2
07:38 15 °C 7.5 °C 1022.0 hPa NW 3.2 km/h 11.3 km/h 61% 0.0 mm 111 W/m2
07:43 15.3 °C 7.6 °C 1022.0 hPa West 3.2 km/h 4.8 km/h 60% 0.0 mm 125 W/m2
07:48 15.5 °C 7.8 °C 1022.0 hPa WNW 3.2 km/h 11.3 km/h 60% 0.0 mm 139 W/m2
07:53 15.7 °C 7.7 °C 1022.0 hPa NNW 4.7 km/h 6.4 km/h 59% 0.0 mm 155 W/m2
07:58 15.9 °C 7.9 °C 1022.0 hPa ENE 4.7 km/h 9.7 km/h 59% 0.0 mm 174 W/m2
08:03 16 °C 7.7 °C 1022.0 hPa NNE 3.2 km/h 4.8 km/h 58% 0.0 mm 188 W/m2
08:08 16.2 °C 7.9 °C 1022.0 hPa East 1.4 km/h 9.7 km/h 58% 0.0 mm 202 W/m2
08:13 16.4 °C 7.9 °C 1022.4 hPa SE 3.2 km/h 4.8 km/h 57% 0.0 mm 220 W/m2
08:18 16.6 °C 7.8 °C 1022.4 hPa North 1.4 km/h 11.3 km/h 56% 0.0 mm 200 W/m2
08:23 16.7 °C 8.1 °C 1022.4 hPa NE 1.4 km/h 6.4 km/h 57% 0.0 mm 100 W/m2
08:28 16.8 °C 8 °C 1022.4 hPa ENE 1.4 km/h 12.9 km/h 56% 0.0 mm 42 W/m2
08:33 16.9 °C 8.1 °C 1022.4 hPa ENE 1.4 km/h 4.8 km/h 56% 0.0 mm 39 W/m2
08:38 17.1 °C 8.3 °C 1022.4 hPa WNW 1.4 km/h 12.9 km/h 56% 0.0 mm 39 W/m2
08:43 17.2 °C 8.1 °C 1022.0 hPa West 3.2 km/h 8 km/h 55% 0.0 mm 39 W/m2
08:48 17.1 °C 8.3 °C 1022.0 hPa North 1.4 km/h 12.9 km/h 56% 0.0 mm 39 W/m2
08:53 17.3 °C 8.2 °C 1022.0 hPa NNW 3.2 km/h 6.4 km/h 55% 0.0 mm 39 W/m2
08:58 17.6 °C 8.5 °C 1022.0 hPa North 1.4 km/h 12.9 km/h 55% 0.0 mm 39 W/m2
09:03 17.8 °C 8.6 °C 1022.0 hPa NNW 3.2 km/h 6.4 km/h 55% 0.0 mm 39 W/m2
09:08 18.1 °C 8.9 °C 1022.0 hPa Calm   3.2 km/h 55% 0.0 mm 39 W/m2
09:13 18.3 °C 8.6 °C 1022.0 hPa West 3.2 km/h 4.8 km/h 53% 0.0 mm 39 W/m2
09:18 18.5 °C 8.5 °C 1022.0 hPa ESE 1.4 km/h 6.4 km/h 52% 0.0 mm 39 W/m2
09:23 18.6 °C 8.6 °C 1022.0 hPa East 6.4 km/h 9.7 km/h 52% 0.0 mm 39 W/m2
09:28 18.7 °C 8.6 °C 1022.0 hPa East 3.2 km/h 14.5 km/h 52% 0.0 mm 39 W/m2
09:33 18.8 °C 8.7 °C 1022.0 hPa WNW 4.7 km/h 4.8 km/h 52% 0.0 mm 40 W/m2
09:38 18.9 °C 8.8 °C 1022.0 hPa ENE 3.2 km/h 8 km/h 52% 0.0 mm 39 W/m2
09:43 19.1 °C 8.7 °C 1022.0 hPa NNW 1.4 km/h 11.3 km/h 51% 0.0 mm 40 W/m2
09:48 19.3 °C 8.6 °C 1022.0 hPa WNW 3.2 km/h 4.8 km/h 50% 0.0 mm 40 W/m2
09:53 19.4 °C 9 °C 1022.0 hPa SE 4.7 km/h 9.7 km/h 51% 0.0 mm 40 W/m2
09:58 19.6 °C 8.9 °C 1021.7 hPa ENE 1.4 km/h 9.7 km/h 50% 0.0 mm 42 W/m2
10:03 19.8 °C 9.1 °C 1022.0 hPa NNW 3.2 km/h 6.4 km/h 50% 0.0 mm 44 W/m2
10:08 20 °C 9 °C 1022.0 hPa ENE 3.2 km/h 14.5 km/h 49% 0.0 mm 46 W/m2
10:13 20.2 °C 9.4 °C 1022.0 hPa Calm   9.7 km/h 50% 0.0 mm 251 W/m2
10:18 20.3 °C 8.9 °C 1021.7 hPa East 6.4 km/h 14.5 km/h 48% 0.0 mm 554 W/m2
10:23 20.4 °C 9 °C 1021.7 hPa ENE 9.7 km/h 11.3 km/h 48% 0.0 mm 566 W/m2
10:28 20.6 °C 9.2 °C 1021.7 hPa WNW 1.4 km/h 3.2 km/h 48% 0.0 mm 578 W/m2
10:33 20.7 °C 9.3 °C 1021.7 hPa NE 3.2 km/h 11.3 km/h 48% 0.0 mm 592 W/m2
10:38 21 °C 9.3 °C 1021.7 hPa NW 3.2 km/h 8 km/h 47% 0.0 mm 606 W/m2
10:43 21.2 °C 9.1 °C 1021.7 hPa WNW 1.4 km/h 6.4 km/h 46% 0.0 mm 615 W/m2
10:48 21.2 °C 9.4 °C 1021.7 hPa ENE 1.4 km/h 11.3 km/h 47% 0.0 mm 629 W/m2
10:53 21.5 °C 9.4 °C 1021.7 hPa NNW 6.4 km/h 6.4 km/h 46% 0.0 mm 640 W/m2
10:58 21.6 °C 10.1 °C 1021.7 hPa SE 13 km/h 12.9 km/h 48% 0.0 mm 647 W/m2
11:03 21.7 °C 9.9 °C 1021.7 hPa ENE 4.7 km/h 8 km/h 47% 0.0 mm 663 W/m2
11:08 22 °C 9.8 °C 1021.3 hPa East 1.4 km/h 12.9 km/h 46% 0.0 mm 671 W/m2
11:13 22.2 °C 9.7 °C 1021.3 hPa East 4.7 km/h 14.5 km/h 45% 0.0 mm 682 W/m2
11:18 22.3 °C 9.8 °C 1021.3 hPa NNW 1.4 km/h 6.4 km/h 45% 0.0 mm 687 W/m2
11:23 22.3 °C 10.4 °C 1021.3 hPa NE 3.2 km/h 14.5 km/h 47% 0.0 mm 698 W/m2
11:28 22.7 °C 10.5 °C 1021.3 hPa North 7.9 km/h 14.5 km/h 46% 0.0 mm 712 W/m2
11:33 22.7 °C 9.8 °C 1021.3 hPa SE 3.2 km/h 8 km/h 44% 0.0 mm 722 W/m2
11:38 23 °C 10.1 °C 1021.3 hPa North 6.4 km/h 14.5 km/h 44% 0.0 mm 731 W/m2
11:44 23.2 °C 10.3 °C 1021.3 hPa NNW 3.2 km/h 6.4 km/h 44% 0.0 mm 742 W/m2
11:49 23.4 °C 10.5 °C 1021.3 hPa Calm   9.7 km/h 44% 0.0 mm 752 W/m2
11:54 23.8 °C 10.5 °C 1021.3 hPa East 6.4 km/h 9.7 km/h 43% 0.0 mm 759 W/m2
11:59 24 °C 10.3 °C 1021.3 hPa ENE 6.4 km/h 12.9 km/h 42% 0.0 mm 765 W/m2
12:04 23.8 °C 10.1 °C 1021.0 hPa NNE 3.2 km/h 8 km/h 42% 0.0 mm 768 W/m2
12:09 23.9 °C 10.2 °C 1021.0 hPa North 4.7 km/h 6.4 km/h 42% 0.0 mm 777 W/m2
12:14 24.1 °C 10.4 °C 1021.0 hPa NE 6.4 km/h 9.7 km/h 42% 0.0 mm 788 W/m2
12:19 24.4 °C 11 °C 1021.0 hPa West 4.7 km/h 8 km/h 43% 0.0 mm 793 W/m2
12:24 24.6 °C 10.8 °C 1020.7 hPa ENE 6.4 km/h 8 km/h 42% 0.0 mm 805 W/m2
12:29 24.7 °C 10.2 °C 1020.7 hPa ENE 4.7 km/h 12.9 km/h 40% 0.0 mm 816 W/m2
12:34 24.7 °C 10.2 °C 1020.7 hPa NE 4.7 km/h 9.7 km/h 40% 0.0 mm 814 W/m2
12:39 24.8 °C 10.7 °C 1020.7 hPa East 1.4 km/h 8 km/h 41% 0.0 mm 817 W/m2
12:44 25.1 °C 10.2 °C 1020.7 hPa ESE 7.9 km/h 12.9 km/h 39% 0.0 mm 828 W/m2
12:49 25.3 °C 10 °C 1020.7 hPa ENE 14.3 km/h 14.5 km/h 38% 0.0 mm 826 W/m2
12:54 25.3 °C 10 °C 1020.3 hPa NE 1.4 km/h 4.8 km/h 38% 0.0 mm 831 W/m2
12:59 25.3 °C 9.6 °C 1020.7 hPa ENE 7.9 km/h 12.9 km/h 37% 0.0 mm 833 W/m2
13:04 25.3 °C 9.6 °C 1020.7 hPa NNW 4.7 km/h 11.3 km/h 37% 0.0 mm 833 W/m2
13:09 25.3 °C 9.6 °C 1020.3 hPa ESE 3.2 km/h 16.1 km/h 37% 0.0 mm 837 W/m2
13:14 25.5 °C 9.7 °C 1020.3 hPa North 6.4 km/h 8 km/h 37% 0.0 mm 842 W/m2
13:19 25.6 °C 9.8 °C 1020.3 hPa ESE 1.4 km/h 8 km/h 37% 0.0 mm 844 W/m2
13:24 25.7 °C 9.9 °C 1020.3 hPa ENE 14.3 km/h 14.5 km/h 37% 0.0 mm 844 W/m2
13:29 25.8 °C 10.8 °C 1020.3 hPa East 3.2 km/h 6.4 km/h 39% 0.0 mm 849 W/m2
13:34 25.9 °C 10.5 °C 1020.0 hPa North 4.7 km/h 8 km/h 38% 0.0 mm 847 W/m2
13:39 26.1 °C 10.7 °C 1020.0 hPa SE 4.7 km/h 6.4 km/h 38% 0.0 mm 849 W/m2
13:44 26.3 °C 10 °C 1020.0 hPa ENE 4.7 km/h 11.3 km/h 36% 0.0 mm 844 W/m2
13:49 26.5 °C 9.8 °C 1020.0 hPa NNE 1.4 km/h 6.4 km/h 35% 0.0 mm 851 W/m2
13:54 26.3 °C 10 °C 1020.0 hPa ENE 4.7 km/h 17.7 km/h 36% 0.0 mm 851 W/m2
13:59 26.4 °C 10.1 °C 1020.0 hPa North 1.4 km/h 14.5 km/h 36% 0.0 mm 847 W/m2
14:04 26.6 °C 9.9 °C 1020.0 hPa East 4.7 km/h 9.7 km/h 35% 0.0 mm 826 W/m2
14:09 26.3 °C 9.2 °C 1020.0 hPa WNW 1.4 km/h 9.7 km/h 34% 0.0 mm 772 W/m2
14:14 26.2 °C 9.1 °C 1020.0 hPa East 3.2 km/h 9.7 km/h 34% 0.0 mm 865 W/m2
14:19 26.1 °C 9.9 °C 1020.0 hPa ENE 3.2 km/h 14.5 km/h 36% 0.0 mm 810 W/m2
14:24 26.1 °C 9.4 °C 1020.0 hPa ESE 3.2 km/h 17.7 km/h 35% 0.0 mm 809 W/m2
14:29 26.1 °C 10.3 °C 1019.6 hPa SE 3.2 km/h 4.8 km/h 37% 0.0 mm 770 W/m2
14:34 26.5 °C 10.2 °C 1019.6 hPa ESE 6.4 km/h 17.7 km/h 36% 0.0 mm 786 W/m2
14:39 26.6 °C 9.9 °C 1019.6 hPa NNW 3.2 km/h 9.7 km/h 35% 0.0 mm 816 W/m2
14:44 26.6 °C 9.9 °C 1019.6 hPa East 1.4 km/h 16.1 km/h 35% 0.0 mm 814 W/m2
14:49 26.6 °C 10.3 °C 1019.6 hPa ESE 4.7 km/h 4.8 km/h 36% 0.0 mm 831 W/m2
14:54 26.7 °C 10 °C 1019.6 hPa ENE 9.7 km/h 14.5 km/h 35% 0.0 mm 837 W/m2
14:59 26.8 °C 10.1 °C 1019.6 hPa NE 11.1 km/h 14.5 km/h 35% 0.0 mm 830 W/m2
15:04 26.7 °C 10.4 °C 1019.6 hPa West 6.4 km/h 8 km/h 36% 0.0 mm 830 W/m2
15:09 26.7 °C 10.4 °C 1019.6 hPa East 11.1 km/h 16.1 km/h 36% 0.0 mm 821 W/m2
15:14 26.8 °C 10.1 °C 1019.6 hPa NNW 3.2 km/h 6.4 km/h 35% 0.0 mm 810 W/m2
15:19 27.1 °C 10.3 °C 1019.3 hPa NNW 1.4 km/h 16.1 km/h 35% 0.0 mm 814 W/m2
15:24 27.1 °C 10.3 °C 1019.3 hPa NNW 4.7 km/h 16.1 km/h 35% 0.0 mm 807 W/m2
15:29 27.3 °C 10.1 °C 1019.3 hPa NNW 1.4 km/h 9.7 km/h 34% 0.0 mm 796 W/m2
15:34 27.5 °C 10.2 °C 1019.3 hPa East 4.7 km/h 9.7 km/h 34% 0.0 mm 795 W/m2
15:39 27.6 °C 10.3 °C 1019.3 hPa SW 4.7 km/h 6.4 km/h 34% 0.0 mm 786 W/m2
15:44 27.7 °C 10 °C 1019.3 hPa Calm   6.4 km/h 33% 0.0 mm 779 W/m2
15:49 27.6 °C 9.9 °C 1019.0 hPa WNW 3.2 km/h 4.8 km/h 33% 0.0 mm 773 W/m2
15:54 27.4 °C 9.7 °C 1019.0 hPa ENE 6.4 km/h 12.9 km/h 33% 0.0 mm 758 W/m2
15:59 27.6 °C 9.9 °C 1019.0 hPa NE 3.2 km/h 8 km/h 33% 0.0 mm 742 W/m2
16:04 27.7 °C 10.4 °C 1019.0 hPa East 3.2 km/h 12.9 km/h 34% 0.0 mm 737 W/m2
16:09 27.7 °C 10.4 °C 1019.0 hPa WSW 3.2 km/h 6.4 km/h 34% 0.0 mm 728 W/m2
16:14 27.8 °C 10.1 °C 1019.0 hPa WNW 4.7 km/h 12.9 km/h 33% 0.0 mm 726 W/m2
16:19 27.8 °C 9.6 °C 1019.0 hPa NE 3.2 km/h 4.8 km/h 32% 0.0 mm 715 W/m2
16:24 27.9 °C 10.6 °C 1019.0 hPa South 4.7 km/h 6.4 km/h 34% 0.0 mm 703 W/m2
16:29 27.9 °C 9.7 °C 1019.0 hPa NNW 6.4 km/h 14.5 km/h 32% 0.0 mm 694 W/m2
16:34 27.9 °C 9.7 °C 1019.0 hPa NE 1.4 km/h 4.8 km/h 32% 0.0 mm 682 W/m2
16:39 28.2 °C 9.9 °C 1019.0 hPa NNE 4.7 km/h 14.5 km/h 32% 0.0 mm 671 W/m2
16:44 28.3 °C 9.6 °C 1019.0 hPa ENE 4.7 km/h 9.7 km/h 31% 0.0 mm 670 W/m2
16:49 28.3 °C 10 °C 1018.6 hPa ESE 4.7 km/h 14.5 km/h 32% 0.0 mm 661 W/m2
16:54 28.2 °C 9.9 °C 1018.6 hPa North 3.2 km/h 12.9 km/h 32% 0.0 mm 650 W/m2
16:59 28.2 °C 9.5 °C 1018.6 hPa NW 4.7 km/h 9.7 km/h 31% 0.0 mm 638 W/m2
17:04 27.9 °C 9.7 °C 1018.6 hPa West 6.4 km/h 14.5 km/h 32% 0.0 mm 612 W/m2
17:09 27.9 °C 9.7 °C 1018.6 hPa ENE 6.4 km/h 9.7 km/h 32% 0.0 mm 610 W/m2
17:14 27.9 °C 9.7 °C 1018.6 hPa SE 3.2 km/h 12.9 km/h 32% 0.0 mm 561 W/m2
17:19 28.1 °C 9.9 °C 1018.6 hPa WSW 7.9 km/h 12.9 km/h 32% 0.0 mm 589 W/m2
17:24 28.1 °C 9.9 °C 1018.6 hPa SE 6.4 km/h 16.1 km/h 32% 0.0 mm 570 W/m2
17:29 28.2 °C 10.4 °C 1018.6 hPa ENE 3.2 km/h 3.2 km/h 33% 0.0 mm 561 W/m2
17:34 28.4 °C 10.1 °C 1018.6 hPa East 4.7 km/h 16.1 km/h 32% 0.0 mm 545 W/m2
17:39 28.2 °C 9.9 °C 1018.3 hPa Calm   8 km/h 32% 0.0 mm 533 W/m2
17:44 28.3 °C 9.6 °C 1018.3 hPa North 7.9 km/h 8 km/h 31% 0.0 mm 517 W/m2
17:49 28.3 °C 9.6 °C 1018.3 hPa NNW 7.9 km/h 9.7 km/h 31% 0.0 mm 504 W/m2
17:54 28.3 °C 9.1 °C 1018.3 hPa NNW 3.2 km/h 9.7 km/h 30% 0.0 mm 490 W/m2
17:59 28.3 °C 9.6 °C 1018.3 hPa WSW 17.7 km/h 17.7 km/h 31% 0.0 mm 482 W/m2
18:04 28.1 °C 9.4 °C 1018.3 hPa NNW 6.4 km/h 14.5 km/h 31% 0.0 mm 471 W/m2
18:09 28.1 °C 9.4 °C 1018.3 hPa ESE 3.2 km/h 6.4 km/h 31% 0.0 mm 450 W/m2
18:14 28.3 °C 9.6 °C 1018.3 hPa ESE 11.1 km/h 11.3 km/h 31% 0.0 mm 438 W/m2
18:19 28.3 °C 9.1 °C 1018.3 hPa West 9.7 km/h 9.7 km/h 30% 0.0 mm 422 W/m2
18:24 28.2 °C 9 °C 1018.3 hPa ESE 1.4 km/h 11.3 km/h 30% 0.0 mm 406 W/m2
18:29 28.2 °C 9 °C 1018.0 hPa NW 4.7 km/h 9.7 km/h 30% 0.0 mm 394 W/m2
18:34 28.3 °C 9.1 °C 1018.3 hPa West 4.7 km/h 8 km/h 30% 0.0 mm 378 W/m2
18:39 28.4 °C 9.6 °C 1018.3 hPa ENE 7.9 km/h 9.7 km/h 31% 0.0 mm 364 W/m2
18:44 28.2 °C 9.9 °C 1018.3 hPa NNW 1.4 km/h 11.3 km/h 32% 0.0 mm 353 W/m2
18:49 27.9 °C 9.7 °C 1018.3 hPa WNW 3.2 km/h 6.4 km/h 32% 0.0 mm 334 W/m2
18:54 28.1 °C 9.4 °C 1018.3 hPa South 1.4 km/h 6.4 km/h 31% 0.0 mm 315 W/m2
18:59 28 °C 8.8 °C 1018.3 hPa ENE 9.7 km/h 14.5 km/h 30% 0.0 mm 287 W/m2
19:04 27.9 °C 9.2 °C 1018.3 hPa NNW 7.9 km/h 12.9 km/h 31% 0.0 mm 176 W/m2
19:09 28.1 °C 8.9 °C 1018.3 hPa NNW 1.4 km/h 14.5 km/h 30% 0.0 mm 60 W/m2
19:14 28.1 °C 8.9 °C 1018.3 hPa ESE 3.2 km/h 11.3 km/h 30% 0.0 mm 46 W/m2
19:19 28 °C 9.3 °C 1018.3 hPa ESE 3.2 km/h 12.9 km/h 31% 0.0 mm 44 W/m2
19:24 27.9 °C 9.2 °C 1018.3 hPa ENE 7.9 km/h 16.1 km/h 31% 0.0 mm 42 W/m2
19:29 27.7 °C 9 °C 1018.3 hPa NNW 6.4 km/h 14.5 km/h 31% 0.0 mm 39 W/m2
19:34 27.6 °C 8.5 °C 1018.3 hPa NNW 3.2 km/h 16.1 km/h 30% 0.0 mm 37 W/m2
19:39 27.5 °C 8.9 °C 1018.3 hPa WNW 3.2 km/h 6.4 km/h 31% 0.0 mm 35 W/m2
19:44 27.2 °C 8.6 °C 1018.3 hPa NNE 6.4 km/h 9.7 km/h 31% 0.0 mm 33 W/m2
19:49 27.1 °C 8.5 °C 1018.3 hPa NNE 3.2 km/h 8 km/h 31% 0.0 mm 32 W/m2
19:54 27 °C 8.9 °C 1018.3 hPa WNW 1.4 km/h 6.4 km/h 32% 0.0 mm 30 W/m2
19:59 26.9 °C 8.8 °C 1018.3 hPa North 3.2 km/h 6.4 km/h 32% 0.0 mm 30 W/m2
20:04 26.9 °C 8.8 °C 1018.3 hPa ENE 6.4 km/h 6.4 km/h 32% 0.0 mm 30 W/m2
20:09 26.7 °C 8.6 °C 1018.3 hPa North 6.4 km/h 6.4 km/h 32% 0.0 mm 26 W/m2
20:14 26.6 °C 8.5 °C 1018.3 hPa ESE 3.2 km/h 6.4 km/h 32% 0.0 mm 25 W/m2
20:19 26.3 °C 8.7 °C 1018.3 hPa Calm   3.2 km/h 33% 0.0 mm 23 W/m2
20:24 26.1 °C 8.6 °C 1018.3 hPa East 6.4 km/h 8 km/h 33% 0.0 mm 21 W/m2
20:29 25.9 °C 8.4 °C 1018.6 hPa Calm   3.2 km/h 33% 0.0 mm 19 W/m2
20:34 25.7 °C 8.2 °C 1018.6 hPa North 1.4 km/h 4.8 km/h 33% 0.0 mm 16 W/m2
20:39 25.5 °C 8.5 °C 1018.6 hPa North 3.2 km/h 4.8 km/h 34% 0.0 mm 16 W/m2
20:44 25.3 °C 8.3 °C 1018.6 hPa NE 3.2 km/h 4.8 km/h 34% 0.0 mm 12 W/m2
20:49 25.2 °C 8.2 °C 1018.6 hPa Calm   3.2 km/h 34% 0.0 mm 11 W/m2
20:54 25 °C 8 °C 1018.6 hPa ENE 1.4 km/h 4.8 km/h 34% 0.0 mm 9 W/m2
20:59 24.8 °C 8.3 °C 1018.6 hPa North 3.2 km/h 8 km/h 35% 0.0 mm 5 W/m2
21:04 24.7 °C 8.2 °C 1019.0 hPa Calm   3.2 km/h 35% 0.0 mm 0 W/m2
21:09 24.6 °C 8.5 °C 1019.0 hPa Calm   8 km/h 36% 0.0 mm 0 W/m2
21:14 24.4 °C 8.4 °C 1019.0 hPa Calm   3.2 km/h 36% 0.0 mm 0 W/m2
21:19 24.2 °C 8.6 °C 1019.0 hPa WNW 1.4 km/h 3.2 km/h 37% 0.0 mm 0 W/m2
21:25 23.9 °C 8.3 °C 1019.0 hPa West 1.4 km/h 3.2 km/h 37% 0.0 mm 0 W/m2
21:30 23.6 °C 8.8 °C 1019.0 hPa West 1.4 km/h 1.6 km/h 39% 0.0 mm 0 W/m2
21:35 23.3 °C 8.9 °C 1019.3 hPa West 1.4 km/h 3.2 km/h 40% 0.0 mm 0 W/m2
21:40 22.9 °C 8.9 °C 1019.3 hPa West 1.4 km/h 3.2 km/h 41% 0.0 mm 0 W/m2
21:45 22.7 °C 8.8 °C 1019.3 hPa Calm   3.2 km/h 41% 0.0 mm 0 W/m2
21:50 22.6 °C 8.7 °C 1019.3 hPa Calm   3.2 km/h 41% 0.0 mm 0 W/m2
21:55 22.4 °C 8.9 °C 1019.3 hPa WNW 1.4 km/h 1.6 km/h 42% 0.0 mm 0 W/m2
22:00 22.2 °C 8.7 °C 1019.6 hPa Calm   3.2 km/h 42% 0.0 mm 0 W/m2
22:05 22 °C 8.8 °C 1019.6 hPa Calm   3.2 km/h 43% 0.0 mm 0 W/m2
22:10 21.9 °C 8.4 °C 1019.6 hPa NW 1.4 km/h 4.8 km/h 42% 0.0 mm 0 W/m2
22:15 21.9 °C 8.1 °C 1019.6 hPa WNW 1.4 km/h 6.4 km/h 41% 0.0 mm 0 W/m2
22:20 21.9 °C 8.1 °C 1019.6 hPa Calm   3.2 km/h 41% 0.0 mm 0 W/m2
22:25 21.9 °C 8.1 °C 1019.6 hPa Calm   3.2 km/h 41% 0.0 mm 0 W/m2
22:30 21.9 °C 8.1 °C 1019.6 hPa Calm   4.8 km/h 41% 0.0 mm 0 W/m2
22:35 21.8 °C 8.3 °C 1019.6 hPa WNW 1.4 km/h 3.2 km/h 42% 0.0 mm 0 W/m2
22:40 21.7 °C 8.2 °C 1019.6 hPa NW 1.4 km/h 3.2 km/h 42% 0.0 mm 0 W/m2
22:45 21.5 °C 8.4 °C 1020.0 hPa Calm   3.2 km/h 43% 0.0 mm 0 W/m2
22:50 21.3 °C 8.2 °C 1019.6 hPa South 3.2 km/h 3.2 km/h 43% 0.0 mm 0 W/m2
22:55 21.3 °C 8.2 °C 1019.6 hPa Calm   3.2 km/h 43% 0.0 mm 0 W/m2
23:00 21.2 °C 8.1 °C 1020.0 hPa Calm   4.8 km/h 43% 0.0 mm 0 W/m2
23:05 21 °C 8.6 °C 1020.0 hPa Calm   4.8 km/h 45% 0.0 mm 0 W/m2
23:10 20.8 °C 8.8 °C 1020.0 hPa WSW 1.4 km/h 1.6 km/h 46% 0.0 mm 0 W/m2
23:15 20.6 °C 8.6 °C 1019.6 hPa West 1.4 km/h 3.2 km/h 46% 0.0 mm 0 W/m2
23:20 20.3 °C 8.3 °C 1020.0 hPa Calm   3.2 km/h 46% 0.0 mm 0 W/m2
23:25 20.2 °C 8.2 °C 1020.0 hPa West 1.4 km/h 1.6 km/h 46% 0.0 mm 0 W/m2
23:30 20.1 °C 8.4 °C 1020.0 hPa West 1.4 km/h 3.2 km/h 47% 0.0 mm 0 W/m2
23:35 20 °C 7.7 °C 1020.0 hPa WSW 3.2 km/h 4.8 km/h 45% 0.0 mm 0 W/m2
23:40 20.2 °C 7.9 °C 1020.0 hPa West 1.4 km/h 9.7 km/h 45% 0.0 mm 0 W/m2
23:45 20.3 °C 7.6 °C 1020.0 hPa Calm   6.4 km/h 44% 0.0 mm 0 W/m2
23:50 20.3 °C 7.6 °C 1020.0 hPa West 3.2 km/h 4.8 km/h 44% 0.0 mm 0 W/m2
23:55 20.4 °C 7.4 °C 1020.0 hPa WNW 4.7 km/h 6.4 km/h 43% 0.0 mm 0 W/m2
Juneau County Weather
Compliments of Weather Underground - 4 mb